Time;durP1;ratioP1;P1;durP2;ratioP2;P2;SDS_P1;SDS_P2;PMS_P1;PMS_P2;Temp;Humidity;BMP_temperature;BMP_pressure;BME280_temperature;BME280_humidity;BME280_pressure;Samples;Min_cycle;Max_cycle;Signal;HPM_P1;HPM_P2
2022/06/13 00:01:03;;;;;;;5.93;4.13;;;20.00;97.60;;;;;;5036442;28;20638;-74
2022/06/13 00:03:30;;;;;;;7.18;4.25;;;19.90;97.80;;;;;;5038511;28;20061;-74
2022/06/13 00:05:57;;;;;;;7.22;4.05;;;19.90;97.70;;;;;;5039525;28;20048;-74
2022/06/13 00:08:25;;;;;;;4.40;4.00;;;19.90;97.70;;;;;;5040879;28;20037;-73
2022/06/13 00:10:52;;;;;;;8.00;4.43;;;19.80;97.90;;;;;;5033837;28;20867;-73
2022/06/13 00:13:19;;;;;;;10.10;4.65;;;19.80;98.00;;;;;;5034294;28;20051;-74
2022/06/13 00:15:47;;;;;;;7.03;3.88;;;19.80;98.20;;;;;;5037482;28;20052;-73
2022/06/13 00:18:14;;;;;;;5.43;4.00;;;19.80;98.30;;;;;;5039657;28;20049;-74
2022/06/13 00:20:41;;;;;;;4.55;4.13;;;19.80;98.10;;;;;;5037333;28;20049;-74
2022/06/13 00:23:08;;;;;;;5.93;4.32;;;19.70;98.40;;;;;;5039555;28;20045;-74
2022/06/13 00:25:35;;;;;;;8.00;4.22;;;19.60;98.30;;;;;;5036456;28;20076;-73
2022/06/13 00:28:02;;;;;;;5.22;4.28;;;19.60;98.60;;;;;;5034478;28;20539;-74
2022/06/13 00:30:29;;;;;;;5.70;4.03;;;19.70;98.30;;;;;;5023449;28;20045;-74
2022/06/13 00:32:56;;;;;;;6.90;3.83;;;19.60;98.30;;;;;;5032740;28;20488;-74
2022/06/13 00:35:24;;;;;;;6.07;3.90;;;19.50;98.10;;;;;;5034331;28;20472;-73
2022/06/13 00:37:51;;;;;;;5.30;3.70;;;19.50;98.40;;;;;;5023272;28;20048;-74
2022/06/13 00:40:19;;;;;;;6.60;4.40;;;19.40;98.30;;;;;;5036107;28;20052;-73
2022/06/13 00:42:46;;;;;;;6.45;4.07;;;19.40;98.20;;;;;;5033999;28;20037;-74
2022/06/13 00:45:22;;;;;;;5.82;3.50;;;19.30;98.50;;;;;;5036356;28;20118;-74
2022/06/13 00:47:53;;;;;;;6.82;4.28;;;19.30;99.10;;;;;;5039202;28;20045;-74
2022/06/13 00:50:27;;;;;;;4.73;3.90;;;19.30;98.50;;;;;;5035843;28;20125;-73
2022/06/13 00:52:54;;;;;;;5.40;3.80;;;19.30;99.40;;;;;;5034288;28;20045;-74
2022/06/13 00:55:37;;;;;;;5.95;3.67;;;19.30;98.80;;;;;;5032146;28;20041;-73
2022/06/13 00:58:05;;;;;;;6.38;4.00;;;19.20;98.60;;;;;;5033353;28;20079;-73
2022/06/13 01:00:35;;;;;;;4.57;3.60;;;19.30;99.50;;;;;;5038417;28;20519;-73
2022/06/13 01:03:03;;;;;;;5.55;4.32;;;19.30;99.40;;;;;;5038480;28;20048;-73
2022/06/13 01:05:35;;;;;;;6.03;4.00;;;19.30;99.30;;;;;;5034212;28;20055;-73
2022/06/13 01:08:06;;;;;;;7.97;3.92;;;19.20;98.90;;;;;;5035505;28;20048;-74
2022/06/13 01:13:25;;;;;;;5.80;4.03;;;19.20;99.90;;;;;;5034385;28;20037;-74
2022/06/13 01:16:09;;;;;;;6.20;3.58;;;19.20;99.70;;;;;;5046831;28;20056;-74
2022/06/13 01:18:59;;;;;;;4.82;3.75;;;19.10;99.30;;;;;;5048939;28;20958;-74
2022/06/13 01:21:38;;;;;;;4.57;3.72;;;19.10;99.90;;;;;;5033689;28;20045;-74
2022/06/13 01:24:42;;;;;;;5.38;3.42;;;19.10;99.40;;;;;;5032084;28;20052;-74
2022/06/13 01:27:24;;;;;;;4.28;3.25;;;19.10;99.60;;;;;;5035337;28;20047;-74
2022/06/13 01:30:30;;;;;;;5.47;3.58;;;19.00;97.90;;;;;;5032095;28;20144;-74
2022/06/13 01:33:33;;;;;;;5.00;2.78;;;19.00;98.60;;;;;;5020536;28;20037;-73
2022/06/13 01:36:18;;;;;;;5.90;3.70;;;19.00;98.00;;;;;;5019547;28;20060;-73
2022/06/13 01:39:10;;;;;;;5.90;3.30;;;18.90;98.10;;;;;;5030378;28;20071;-73
2022/06/13 01:42:00;;;;;;;4.35;3.05;;;19.00;98.50;;;;;;5033072;28;20092;-73
2022/06/13 01:45:02;;;;;;;5.20;3.40;;;18.90;99.40;;;;;;5036232;28;20520;-73
2022/06/13 01:47:42;;;;;;;6.03;3.35;;;18.90;99.10;;;;;;5034250;28;20045;-74
2022/06/13 01:50:36;;;;;;;5.18;3.13;;;18.80;99.20;;;;;;5034767;28;20132;-73
2022/06/13 01:53:21;;;;;;;3.90;3.38;;;18.80;99.50;;;;;;5029908;28;20757;-73
2022/06/13 01:56:00;;;;;;;5.22;3.13;;;18.80;99.50;;;;;;5033388;28;20043;-73
2022/06/13 01:58:41;;;;;;;6.13;3.35;;;18.80;99.90;;;;;;5034524;28;20092;-73
2022/06/13 02:01:16;;;;;;;5.50;3.40;;;18.80;99.90;;;;;;5033030;28;20142;-74
2022/06/13 02:03:57;;;;;;;6.15;3.40;;;18.70;99.90;;;;;;5032755;28;20037;-73
2022/06/13 02:06:33;;;;;;;5.90;3.33;;;18.70;99.90;;;;;;5034943;28;20095;-73
2022/06/13 02:09:15;;;;;;;7.50;3.03;;;18.70;99.90;;;;;;5034621;28;20423;-73
2022/06/13 02:11:52;;;;;;;4.63;3.03;;;18.60;99.90;;;;;;5036320;28;20103;-73
2022/06/13 02:14:34;;;;;;;4.88;3.17;;;18.60;99.90;;;;;;5022450;28;20076;-73
2022/06/13 02:17:10;;;;;;;4.75;3.40;;;18.50;99.90;;;;;;5033280;28;20040;-73
2022/06/13 02:20:02;;;;;;;4.85;3.08;;;18.50;99.90;;;;;;5035832;28;20048;-73
2022/06/13 02:22:38;;;;;;;5.03;2.97;;;18.50;99.90;;;;;;5033088;28;20057;-73
2022/06/13 02:25:10;;;;;;;4.43;3.58;;;18.50;99.90;;;;;;5037094;28;20298;-73
2022/06/13 02:27:41;;;;;;;4.80;3.63;;;18.50;99.90;;;;;;5033612;28;21095;-73
2022/06/13 02:30:12;;;;;;;8.45;3.72;;;18.40;99.90;;;;;;5032275;28;20040;-73
2022/06/13 02:32:48;;;;;;;7.20;3.75;;;18.40;99.90;;;;;;5035043;28;20036;-73
2022/06/13 02:35:24;;;;;;;6.47;3.85;;;18.40;99.90;;;;;;5038519;28;20051;-73
2022/06/13 02:38:06;;;;;;;6.13;3.60;;;18.40;99.90;;;;;;5040338;28;20038;-73
2022/06/13 02:40:39;;;;;;;4.45;3.28;;;18.30;99.90;;;;;;5020592;28;20056;-73
2022/06/13 02:43:15;;;;;;;;;;;18.30;99.90;;;;;;5002630;28;20060;-73
2022/06/13 02:46:15;;;;;;;5.95;3.53;;;18.30;99.90;;;;;;5001936;28;20796;-73
2022/06/13 02:48:49;;;;;;;7.07;4.05;;;18.30;99.90;;;;;;5005303;28;20527;-73
2022/06/13 02:51:38;;;;;;;4.90;3.15;;;18.30;99.90;;;;;;5009345;28;20045;-73
2022/06/13 02:54:13;;;;;;;5.25;3.60;;;18.30;99.90;;;;;;5001769;28;20539;-73
2022/06/13 02:57:23;;;;;;;5.70;3.03;;;18.30;99.90;;;;;;5000107;28;20170;-73
2022/06/13 03:00:09;;;;;;;5.25;3.25;;;18.30;99.90;;;;;;5002046;28;20526;-73
2022/06/13 03:02:44;;;;;;;6.75;3.63;;;18.20;99.90;;;;;;5003590;28;20064;-73
2022/06/13 03:05:39;;;;;;;4.85;3.53;;;18.30;99.90;;;;;;5000731;28;20045;-73
2022/06/13 03:08:12;;;;;;;3.97;3.05;;;18.30;99.90;;;;;;5002360;28;20061;-72
2022/06/13 03:10:58;;;;;;;4.93;3.25;;;18.20;99.90;;;;;;5000430;28;20085;-73
2022/06/13 03:13:40;;;;;;;5.57;3.42;;;18.30;99.90;;;;;;4997780;28;20041;-73
2022/06/13 03:16:33;;;;;;;5.53;3.42;;;18.20;99.90;;;;;;5002592;28;20165;-73
2022/06/13 03:19:10;;;;;;;6.82;3.20;;;18.20;99.90;;;;;;5001699;28;20132;-73
2022/06/13 03:21:48;;;;;;;4.43;3.30;;;18.20;99.90;;;;;;4998990;28;20046;-73
2022/06/13 03:24:23;;;;;;;5.32;3.00;;;18.20;99.90;;;;;;5001400;28;22212;-73
2022/06/13 03:26:59;;;;;;;5.80;3.60;;;18.20;99.90;;;;;;5002590;28;20053;-73
2022/06/13 03:29:29;;;;;;;8.63;3.90;;;18.20;99.90;;;;;;5001557;28;20184;-73
2022/06/13 03:32:23;;;;;;;6.80;3.30;;;18.20;99.90;;;;;;5001079;28;20071;-73
2022/06/13 03:34:55;;;;;;;6.82;3.92;;;18.20;99.90;;;;;;5003571;28;20061;-74
2022/06/13 03:37:50;;;;;;;6.10;4.00;;;18.20;99.90;;;;;;5002255;28;20053;-74
2022/06/13 03:40:24;;;;;;;8.15;3.83;;;18.30;99.90;;;;;;5002857;28;21038;-73
2022/06/13 03:43:05;;;;;;;4.47;3.60;;;18.30;99.90;;;;;;4981423;28;20064;-73
2022/06/13 03:45:42;;;;;;;5.55;3.40;;;18.30;99.90;;;;;;5008127;28;20049;-73
2022/06/13 03:48:20;;;;;;;6.68;3.33;;;18.30;99.90;;;;;;4998608;28;20994;-72
2022/06/13 03:51:03;;;;;;;7.47;4.05;;;18.30;99.90;;;;;;5000983;28;20045;-73
2022/06/13 03:53:39;;;;;;;5.72;3.67;;;18.40;99.90;;;;;;5001601;28;22432;-73
2022/06/13 03:56:28;;;;;;;6.22;3.75;;;18.50;99.90;;;;;;5004272;28;20094;-72
2022/06/13 03:59:00;;;;;;;7.47;3.40;;;18.50;99.90;;;;;;4990527;28;20669;-73
2022/06/13 04:01:35;;;;;;;8.63;3.42;;;18.60;99.90;;;;;;4999192;28;20056;-72
2022/06/13 04:04:03;;;;;;;5.47;3.83;;;18.60;99.90;;;;;;5002488;28;20123;-73
2022/06/13 04:06:44;;;;;;;8.65;3.40;;;18.70;99.90;;;;;;4977455;28;20048;-73
2022/06/13 04:09:17;;;;;;;5.82;3.50;;;18.70;99.90;;;;;;5002660;28;22634;-73
2022/06/13 04:11:50;;;;;;;6.18;3.75;;;18.80;99.90;;;;;;5001875;28;20049;-73
2022/06/13 04:14:33;;;;;;;5.82;3.70;;;18.90;99.90;;;;;;5001182;28;20199;-73
2022/06/13 04:17:36;;;;;;;7.85;4.20;;;18.90;99.90;;;;;;5001146;28;20106;-73
2022/06/13 04:20:30;;;;;;;;;;;19.00;99.90;;;;;;4997791;28;20052;-73
2022/06/13 04:23:52;;;;;;;5.05;4.20;;;19.10;99.90;;;;;;5000601;28;20069;-73
2022/06/13 04:26:25;;;;;;;9.35;4.00;;;19.20;99.90;;;;;;4990969;28;20064;-73
2022/06/13 04:29:20;;;;;;;4.28;3.15;;;19.30;99.90;;;;;;4989827;28;22894;-73
2022/06/13 04:31:49;;;;;;;9.15;3.15;;;19.30;99.90;;;;;;4999794;28;20087;-73
2022/06/13 04:34:23;;;;;;;4.70;3.10;;;19.40;99.60;;;;;;5001318;28;20056;-73
2022/06/13 04:36:53;;;;;;;6.93;3.40;;;19.50;99.90;;;;;;4994511;28;20045;-73
2022/06/13 04:39:28;;;;;;;5.30;2.95;;;19.50;99.70;;;;;;4986381;28;22454;-73
2022/06/13 04:41:56;;;;;;;7.63;3.28;;;19.70;98.10;;;;;;4998442;28;20045;-73
2022/06/13 04:44:28;;;;;;;9.95;4.07;;;19.70;99.20;;;;;;4999526;28;20187;-72
2022/06/13 04:46:56;;;;;;;9.68;3.88;;;19.80;97.30;;;;;;5000806;28;20835;-72
2022/06/13 04:49:55;;;;;;;5.15;3.15;;;19.80;96.70;;;;;;5000785;28;20052;-72
2022/06/13 04:52:32;;;;;;;5.95;3.13;;;19.90;96.80;;;;;;5003247;28;20194;-72
2022/06/13 04:55:07;;;;;;;4.28;2.58;;;20.00;96.90;;;;;;4997157;28;20053;-72
2022/06/13 04:57:35;;;;;;;4.60;2.70;;;20.20;97.30;;;;;;4989404;28;20143;-72
2022/06/13 05:00:07;;;;;;;3.53;2.60;;;20.30;96.10;;;;;;5000718;28;20068;-73
2022/06/13 05:02:44;;;;;;;5.50;3.53;;;20.40;96.20;;;;;;5000401;28;20057;-73
2022/06/13 05:05:41;;;;;;;5.10;3.13;;;20.50;95.90;;;;;;5008823;28;20081;-72
2022/06/13 05:08:29;;;;;;;3.17;2.55;;;20.70;95.20;;;;;;4998601;28;20195;-72
2022/06/13 05:11:07;;;;;;;4.40;2.60;;;20.80;94.20;;;;;;4981741;28;20063;-72
2022/06/13 05:13:34;;;;;;;5.65;2.30;;;20.90;92.40;;;;;;4998044;28;20061;-72
2022/06/13 05:16:22;;;;;;;3.53;2.85;;;21.00;92.60;;;;;;5001054;28;20045;-72
2022/06/13 05:19:08;;;;;;;3.60;2.47;;;21.20;93.30;;;;;;5000676;28;22465;-72
2022/06/13 05:21:45;;;;;;;4.65;2.70;;;21.40;91.00;;;;;;5011620;28;20060;-73
2022/06/13 05:24:41;;;;;;;4.07;2.38;;;21.60;89.00;;;;;;5000206;28;22531;-71
2022/06/13 05:27:08;;;;;;;4.50;2.42;;;21.70;89.00;;;;;;4997882;28;20049;-72
2022/06/13 05:29:36;;;;;;;7.70;2.33;;;21.90;83.90;;;;;;5000546;28;20056;-72
2022/06/13 05:32:06;;;;;;;2.65;1.73;;;22.10;84.70;;;;;;4998365;28;20132;-72
2022/06/13 05:34:37;;;;;;;3.92;1.65;;;22.20;82.40;;;;;;4999732;28;22322;-73
2022/06/13 05:37:05;;;;;;;2.05;1.52;;;22.30;82.30;;;;;;5002488;28;22366;-72
2022/06/13 05:39:35;;;;;;;5.20;1.90;;;22.40;78.50;;;;;;4994405;28;20037;-72
2022/06/13 05:42:03;;;;;;;3.63;1.73;;;22.50;78.60;;;;;;4998651;28;20114;-72
2022/06/13 05:44:30;;;;;;;2.75;1.60;;;22.70;78.60;;;;;;4999070;28;20053;-72
2022/06/13 05:46:58;;;;;;;2.97;1.77;;;22.70;78.60;;;;;;4999909;28;22561;-72
2022/06/13 05:49:25;;;;;;;3.20;1.52;;;22.90;78.00;;;;;;4996947;28;20045;-73
2022/06/13 05:51:52;;;;;;;4.60;1.20;;;23.10;75.00;;;;;;4981269;28;20053;-73
2022/06/13 05:54:19;;;;;;;3.20;1.50;;;23.20;72.40;;;;;;5011764;28;22330;-72
2022/06/13 05:56:46;;;;;;;2.58;1.20;;;23.10;75.30;;;;;;5013047;28;20044;-73
2022/06/13 05:59:13;;;;;;;5.43;1.20;;;23.30;72.90;;;;;;4995925;28;20045;-72
2022/06/13 06:01:40;;;;;;;3.85;1.20;;;23.40;76.80;;;;;;4994702;28;22152;-73
2022/06/13 06:04:09;;;;;;;1.63;1.02;;;23.40;74.20;;;;;;4998376;28;20060;-73
2022/06/13 06:06:36;;;;;;;5.13;1.13;;;23.60;72.00;;;;;;5004972;28;20050;-73
2022/06/13 06:09:06;;;;;;;2.60;1.10;;;23.80;71.80;;;;;;5003462;28;20045;-72
2022/06/13 06:11:33;;;;;;;4.43;1.48;;;23.90;70.80;;;;;;5005194;28;20080;-74
2022/06/13 06:14:00;;;;;;;3.38;1.52;;;24.10;68.40;;;;;;5011505;28;20045;-74
2022/06/13 06:16:27;;;;;;;3.25;0.90;;;24.10;70.60;;;;;;5012392;28;20045;-74
2022/06/13 06:18:55;;;;;;;1.50;1.10;;;24.30;68.50;;;;;;5015061;28;20053;-73
2022/06/13 06:21:22;;;;;;;5.00;1.42;;;24.30;68.10;;;;;;5008691;28;20060;-73
2022/06/13 06:23:49;;;;;;;4.10;1.02;;;24.40;72.30;;;;;;5001109;28;20058;-73
2022/06/13 06:26:26;;;;;;;2.30;1.23;;;24.40;72.10;;;;;;5006994;28;20057;-74
2022/06/13 06:28:54;;;;;;;6.78;1.30;;;24.50;67.40;;;;;;5012134;28;20061;-73
2022/06/13 06:31:21;;;;;;;6.50;1.88;;;24.60;69.10;;;;;;5007163;28;20049;-73
2022/06/13 06:33:48;;;;;;;2.30;1.05;;;24.60;65.90;;;;;;5010416;28;20071;-74
2022/06/13 06:36:16;;;;;;;2.13;1.00;;;24.60;66.70;;;;;;5014518;28;20045;-73
2022/06/13 06:38:43;;;;;;;2.70;1.20;;;24.70;69.00;;;;;;5006882;28;20038;-73
2022/06/13 06:41:10;;;;;;;1.80;1.15;;;24.70;67.40;;;;;;5008124;28;20045;-73
2022/06/13 06:43:37;;;;;;;1.65;0.80;;;24.70;67.70;;;;;;5006705;28;20041;-73
2022/06/13 06:46:05;;;;;;;4.38;1.10;;;24.90;66.30;;;;;;5008174;28;20075;-74
2022/06/13 06:48:32;;;;;;;1.55;1.05;;;25.00;68.50;;;;;;5011386;28;20108;-74
2022/06/13 06:50:59;;;;;;;2.08;1.20;;;24.90;67.20;;;;;;5009323;28;20053;-74
2022/06/13 06:59:53;;;;;;;2.17;1.10;;;25.00;67.60;;;;;;5028889;28;20876;-74
2022/06/13 07:01:47;;;;;;;2.75;1.13;;;25.20;69.50;;;;;;5017412;28;20072;-74
2022/06/13 07:04:14;;;;;;;3.38;0.95;;;25.40;65.80;;;;;;5016168;28;20138;-75
2022/06/13 07:06:41;;;;;;;2.83;1.10;;;25.40;69.90;;;;;;5003622;28;20061;-75
2022/06/13 07:09:09;;;;;;;3.00;1.15;;;25.50;67.60;;;;;;4998125;28;20064;-73
2022/06/13 07:11:56;;;;;;;2.78;0.77;;;25.60;68.10;;;;;;4997132;28;21053;-74
2022/06/13 07:14:29;;;;;;;1.90;0.77;;;25.50;67.70;;;;;;5012661;28;20135;-76
2022/06/13 07:16:57;;;;;;;3.95;1.45;;;25.60;64.10;;;;;;5011987;28;20055;-76
2022/06/13 07:19:25;;;;;;;2.00;0.98;;;25.60;68.10;;;;;;5013994;28;20136;-76
2022/06/13 07:21:53;;;;;;;2.80;1.33;;;25.80;67.50;;;;;;5010312;28;20063;-74
2022/06/13 07:24:21;;;;;;;2.40;1.00;;;25.80;68.20;;;;;;5012835;28;20052;-74
2022/06/13 07:26:49;;;;;;;2.25;0.98;;;25.80;66.00;;;;;;5018561;28;20819;-74
2022/06/13 07:29:16;;;;;;;4.30;1.10;;;25.80;65.20;;;;;;5015362;28;20096;-76
2022/06/13 07:31:47;;;;;;;3.67;1.00;;;25.90;67.80;;;;;;5010358;28;21047;-74
2022/06/13 07:34:19;;;;;;;2.20;1.10;;;25.90;68.30;;;;;;5009344;28;20072;-74
2022/06/13 07:36:50;;;;;;;2.55;1.23;;;26.00;67.50;;;;;;5011237;28;20045;-74
2022/06/13 07:39:17;;;;;;;3.17;1.00;;;25.90;68.30;;;;;;5007944;28;20057;-74
2022/06/13 07:41:45;;;;;;;2.03;1.00;;;26.00;67.00;;;;;;5004504;28;20045;-76
2022/06/13 07:44:22;;;;;;;3.10;1.10;;;26.20;66.30;;;;;;5009279;28;20060;-76
2022/06/13 07:46:50;;;;;;;1.80;0.93;;;26.10;67.10;;;;;;5002345;28;21047;-76
2022/06/13 07:49:19;;;;;;;3.83;1.27;;;26.20;67.80;;;;;;4999627;28;20499;-76
2022/06/13 07:51:46;;;;;;;2.33;0.90;;;26.20;66.60;;;;;;4998885;28;20059;-76
2022/06/13 07:54:14;;;;;;;2.60;0.90;;;26.10;69.10;;;;;;5025698;28;20074;-74
2022/06/13 07:56:43;;;;;;;2.67;1.33;;;26.10;65.30;;;;;;5011440;28;20067;-76
2022/06/13 07:59:27;;;;;;;1.38;0.85;;;26.20;65.80;;;;;;5015980;28;20107;-76
2022/06/13 08:01:55;;;;;;;3.05;1.00;;;26.40;66.30;;;;;;5011523;28;20409;-76
2022/06/13 08:04:22;;;;;;;1.10;0.82;;;26.40;65.00;;;;;;5002979;28;20056;-76
2022/06/13 08:07:10;;;;;;;2.92;1.00;;;26.40;64.20;;;;;;5009503;28;20058;-75
2022/06/13 08:09:38;;;;;;;1.75;0.77;;;26.50;63.90;;;;;;5016998;28;22478;-76
2022/06/13 08:12:06;;;;;;;2.20;1.15;;;26.50;62.60;;;;;;5029657;28;20050;-76
2022/06/13 08:14:33;;;;;;;3.28;1.10;;;26.30;60.50;;;;;;5026530;28;20040;-76
2022/06/13 08:17:01;;;;;;;3.70;0.90;;;26.50;61.70;;;;;;4991514;28;20045;-76
2022/06/13 08:19:29;;;;;;;1.35;0.88;;;26.60;62.10;;;;;;5008128;28;22432;-77
2022/06/13 08:21:56;;;;;;;1.02;0.68;;;26.70;60.70;;;;;;5011454;28;20057;-76
2022/06/13 08:24:23;;;;;;;1.88;0.73;;;26.60;63.10;;;;;;5029998;28;20088;-76
2022/06/13 08:26:50;;;;;;;2.15;0.75;;;26.60;59.40;;;;;;5014512;28;22536;-76
2022/06/13 08:29:17;;;;;;;2.42;0.70;;;26.50;57.90;;;;;;5019382;28;20211;-76
2022/06/13 08:31:44;;;;;;;2.20;0.98;;;26.60;60.10;;;;;;5023273;28;20045;-76
2022/06/13 08:34:11;;;;;;;1.33;0.77;;;26.60;61.80;;;;;;5017218;28;20049;-76
2022/06/13 08:36:38;;;;;;;0.88;0.40;;;26.70;61.60;;;;;;5012816;28;22418;-76
2022/06/13 08:39:05;;;;;;;1.98;0.82;;;26.80;56.70;;;;;;5007379;28;22458;-76
2022/06/13 08:41:54;;;;;;;2.03;1.38;;;26.90;59.60;;;;;;4990244;28;20057;-76
2022/06/13 08:44:39;;;;;;;1.20;0.90;;;26.90;61.00;;;;;;5004793;28;20511;-76
2022/06/13 08:47:34;;;;;;;2.08;1.00;;;26.90;58.90;;;;;;5018457;28;22288;-76
2022/06/13 08:50:11;;;;;;;2.10;0.90;;;26.70;57.50;;;;;;5014740;28;20041;-76
2022/06/13 08:52:55;;;;;;;2.17;1.00;;;26.80;61.20;;;;;;5014518;28;22624;-76
2022/06/13 08:55:28;;;;;;;1.48;0.90;;;26.90;61.40;;;;;;5015157;28;20053;-76
2022/06/13 08:58:20;;;;;;;0.82;0.70;;;27.00;59.40;;;;;;5036913;28;20045;-76
2022/06/13 09:00:52;;;;;;;;;;;26.90;59.80;;;;;;5016802;28;20053;-76
2022/06/13 09:03:36;;;;;;;1.10;0.80;;;27.00;60.70;;;;;;5013335;28;20073;-75
2022/06/13 09:06:14;;;;;;;1.23;0.77;;;27.10;57.10;;;;;;5011668;28;20669;-74
2022/06/13 09:08:59;;;;;;;1.58;1.00;;;27.20;58.80;;;;;;5008433;28;20045;-73
2022/06/13 09:11:52;;;;;;;1.42;0.90;;;27.10;59.50;;;;;;4998125;28;20053;-74
2022/06/13 09:14:41;;;;;;;1.50;1.15;;;27.10;60.20;;;;;;5002620;28;20054;-74
2022/06/13 09:17:33;;;;;;;3.38;0.80;;;27.00;56.90;;;;;;5022215;28;20174;-75
2022/06/13 09:20:20;;;;;;;2.58;0.75;;;26.90;58.00;;;;;;5001693;28;20057;-74
2022/06/13 09:22:59;;;;;;;1.55;0.90;;;27.00;60.20;;;;;;5020762;28;20096;-74
2022/06/13 09:25:48;;;;;;;1.65;1.05;;;27.20;60.20;;;;;;5023144;28;20045;-75
2022/06/13 09:28:28;;;;;;;2.10;1.40;;;27.10;58.40;;;;;;4999299;28;20059;-74
2022/06/13 09:31:03;;;;;;;2.35;1.50;;;26.90;59.70;;;;;;5008192;28;21687;-73
2022/06/13 09:33:33;;;;;;;5.68;1.58;;;26.90;56.50;;;;;;4993223;28;20052;-74
2022/06/13 09:36:30;;;;;;;2.28;0.75;;;27.00;62.00;;;;;;5004509;28;20041;-75
2022/06/13 09:39:07;;;;;;;3.45;1.45;;;27.20;62.10;;;;;;4991854;28;20823;-75
2022/06/13 09:41:34;;;;;;;3.33;2.05;;;27.40;60.70;;;;;;5003062;28;20051;-75
2022/06/13 09:44:10;;;;;;;1.50;1.13;;;27.40;57.90;;;;;;5009065;28;20049;-75
2022/06/13 09:47:01;;;;;;;2.58;1.85;;;27.20;57.40;;;;;;5027970;28;20045;-75
2022/06/13 09:49:51;;;;;;;2.38;1.50;;;27.20;58.60;;;;;;5010167;28;20063;-75
2022/06/13 09:52:51;;;;;;;1.80;1.30;;;27.20;60.00;;;;;;5006452;28;20138;-75
2022/06/13 09:55:26;;;;;;;3.25;1.60;;;27.30;59.00;;;;;;5004440;28;20051;-75
2022/06/13 09:57:53;;;;;;;4.38;1.40;;;27.30;59.10;;;;;;5002312;28;20053;-74
2022/06/13 10:05:21;;;;;;;5.70;2.03;;;27.20;60.00;;;;;;5015534;28;20091;-75
2022/06/13 10:08:13;;;;;;;1.75;1.50;;;27.30;60.50;;;;;;5002070;28;20056;-74
2022/06/13 10:11:15;;;;;;;2.08;1.52;;;27.30;59.90;;;;;;5006634;28;20049;-74
2022/06/13 10:13:45;;;;;;;;;;;27.40;62.20;;;;;;5010917;28;20064;-75
2022/06/13 10:16:29;;;;;;;3.42;2.08;;;27.40;59.60;;;;;;5000189;28;20019;-74
2022/06/13 10:19:22;;;;;;;2.60;1.40;;;27.50;61.50;;;;;;4994144;28;20521;-74
2022/06/13 10:22:03;;;;;;;5.50;1.45;;;27.50;60.70;;;;;;5000197;28;20687;-75
2022/06/13 10:24:35;;;;;;;4.57;1.75;;;27.40;58.70;;;;;;5001153;28;20037;-74
2022/06/13 10:27:16;;;;;;;2.03;1.27;;;27.50;60.20;;;;;;5015425;28;20041;-75
2022/06/13 10:30:07;;;;;;;2.78;1.52;;;27.70;57.80;;;;;;4993297;28;20049;-75
2022/06/13 10:32:45;;;;;;;2.38;1.33;;;27.60;54.40;;;;;;5006983;28;20175;-75
2022/06/13 10:35:30;;;;;;;3.03;1.70;;;27.60;56.30;;;;;;5010567;28;20851;-75
2022/06/13 10:38:21;;;;;;;2.20;1.38;;;27.60;58.30;;;;;;5003384;28;20059;-74
2022/06/13 10:40:49;;;;;;;5.75;1.42;;;27.70;56.40;;;;;;5008447;28;20167;-75
2022/06/13 10:43:16;;;;;;;2.42;1.60;;;27.60;57.70;;;;;;5009248;28;20061;-75
2022/06/13 10:45:44;;;;;;;1.70;1.30;;;27.60;55.50;;;;;;5011917;28;20061;-75
2022/06/13 10:48:24;;;;;;;4.43;1.23;;;27.60;55.00;;;;;;5015459;28;20052;-75
2022/06/13 10:50:55;;;;;;;2.10;1.45;;;27.70;55.60;;;;;;5013767;28;20052;-75
2022/06/13 10:53:29;;;;;;;1.80;1.45;;;27.70;54.30;;;;;;4999704;28;20056;-75
2022/06/13 10:55:58;;;;;;;4.13;1.70;;;27.70;55.00;;;;;;4996116;28;20057;-75
2022/06/13 10:58:34;;;;;;;3.03;1.50;;;27.50;55.60;;;;;;4999328;28;20433;-74
2022/06/13 11:01:16;;;;;;;2.80;1.40;;;27.60;56.80;;;;;;5003096;28;20048;-75
2022/06/13 11:03:57;;;;;;;2.47;1.40;;;27.30;55.50;;;;;;5003877;28;20504;-75
2022/06/13 11:06:41;;;;;;;3.92;1.65;;;27.40;55.30;;;;;;5000084;28;21117;-75
2022/06/13 11:09:42;;;;;;;2.08;1.42;;;27.20;54.50;;;;;;5012892;28;22457;-75
2022/06/13 11:12:31;;;;;;;4.55;1.60;;;27.30;55.90;;;;;;5009527;28;20069;-75
2022/06/13 11:24:46;;;;;;;2.17;1.52;;;28.10;55.50;;;;;;4999877;28;20055;-74
2022/06/13 11:27:40;;;;;;;2.95;1.60;;;28.00;56.30;;;;;;4995653;28;21129;-74
2022/06/13 11:30:20;;;;;;;3.05;1.67;;;28.10;57.50;;;;;;5001770;28;20060;-73
2022/06/13 11:32:57;;;;;;;3.40;1.80;;;28.20;57.90;;;;;;4991413;28;20045;-73
2022/06/13 11:35:30;;;;;;;1.70;1.40;;;28.40;58.50;;;;;;5006085;28;22422;-74
2022/06/13 11:38:19;;;;;;;4.65;1.40;;;28.40;57.50;;;;;;4994943;28;20054;-75
2022/06/13 11:41:18;;;;;;;2.28;1.30;;;28.60;56.40;;;;;;5005038;28;20049;-73
2022/06/13 11:43:59;;;;;;;2.72;1.60;;;28.70;55.50;;;;;;5006839;28;20053;-74
2022/06/13 11:46:26;;;;;;;3.73;1.80;;;28.50;55.90;;;;;;5007847;28;22297;-74
2022/06/13 11:48:56;;;;;;;1.55;1.40;;;28.20;56.20;;;;;;5007129;28;20298;-73
2022/06/13 11:51:27;;;;;;;3.17;1.60;;;28.10;56.70;;;;;;5009684;28;20040;-74
2022/06/13 11:53:57;;;;;;;2.53;1.35;;;28.10;55.30;;;;;;5004189;28;20572;-73
2022/06/13 11:56:30;;;;;;;3.53;1.45;;;28.10;56.90;;;;;;5002437;28;20187;-74
2022/06/13 11:59:01;;;;;;;4.30;1.55;;;28.10;55.80;;;;;;5003078;28;20618;-74
2022/06/13 12:01:38;;;;;;;1.92;1.45;;;28.20;58.20;;;;;;5003074;28;20049;-74
2022/06/13 12:04:11;;;;;;;4.88;1.65;;;28.00;57.80;;;;;;5003238;28;22053;-75
2022/06/13 12:06:47;;;;;;;1.60;1.50;;;27.80;59.10;;;;;;4996658;28;20163;-74
2022/06/13 12:09:23;;;;;;;1.90;1.67;;;27.60;59.00;;;;;;4995977;28;20049;-74
2022/06/13 12:12:00;;;;;;;3.42;1.67;;;27.50;59.80;;;;;;4995849;28;20057;-74
2022/06/13 12:14:30;;;;;;;4.18;1.83;;;27.30;60.40;;;;;;5000978;28;20049;-73
2022/06/13 12:17:08;;;;;;;3.20;1.65;;;27.10;60.90;;;;;;5007022;28;20528;-74
2022/06/13 12:19:52;;;;;;;3.25;1.88;;;27.40;59.90;;;;;;5001443;28;20045;-74
2022/06/13 12:22:43;;;;;;;3.38;2.42;;;27.70;59.70;;;;;;5005147;28;20040;-74
2022/06/13 12:25:23;;;;;;;2.75;1.88;;;27.90;59.30;;;;;;5007265;28;20044;-74
2022/06/13 12:27:58;;;;;;;3.80;1.90;;;28.10;59.70;;;;;;5001443;28;20187;-75
2022/06/13 12:30:49;;;;;;;4.25;2.45;;;28.10;61.60;;;;;;5007912;28;20200;-74
2022/06/13 12:33:38;;;;;;;4.82;1.80;;;28.10;60.60;;;;;;4996616;28;20056;-73
2022/06/13 12:36:17;;;;;;;4.28;1.85;;;28.20;60.00;;;;;;5018711;28;20057;-73
2022/06/13 12:39:06;;;;;;;2.47;2.03;;;28.30;58.40;;;;;;5008981;28;20049;-74
2022/06/13 12:41:52;;;;;;;2.55;1.60;;;28.30;57.60;;;;;;5001787;28;20072;-73
2022/06/13 12:44:52;;;;;;;4.30;2.30;;;28.40;57.40;;;;;;5006642;28;20056;-74
2022/06/13 12:47:36;;;;;;;1.85;1.67;;;28.00;56.60;;;;;;5004235;28;21350;-74
2022/06/13 12:50:25;;;;;;;2.10;1.80;;;28.10;56.50;;;;;;5009406;28;22395;-74
2022/06/13 12:53:09;;;;;;;2.08;1.90;;;28.20;56.00;;;;;;5004899;28;21119;-75
2022/06/13 12:56:01;;;;;;;2.28;1.65;;;28.30;58.50;;;;;;5005585;28;20161;-75
2022/06/13 12:59:05;;;;;;;2.58;1.50;;;28.50;58.20;;;;;;5004353;28;22570;-74
2022/06/13 13:01:41;;;;;;;2.17;1.35;;;28.50;53.70;;;;;;5001405;28;21057;-74
2022/06/13 13:04:25;;;;;;;3.13;1.63;;;28.60;57.10;;;;;;5002460;28;20488;-74
2022/06/13 13:06:52;;;;;;;2.17;1.40;;;28.60;56.60;;;;;;5001116;28;20081;-74
2022/06/13 13:09:40;;;;;;;1.70;1.10;;;28.50;54.00;;;;;;5007609;28;20045;-73
2022/06/13 13:12:27;;;;;;;2.83;1.60;;;28.50;53.00;;;;;;5017734;28;20754;-75
2022/06/13 13:15:20;;;;;;;2.30;1.42;;;28.40;54.70;;;;;;5005276;28;20050;-75
2022/06/13 13:18:12;;;;;;;1.83;1.30;;;28.30;54.80;;;;;;5014346;28;20124;-73
2022/06/13 13:20:56;;;;;;;1.83;1.50;;;28.10;52.90;;;;;;5007188;28;20121;-73
2022/06/13 13:23:39;;;;;;;2.22;1.17;;;28.00;53.90;;;;;;5004577;28;20050;-76
2022/06/13 13:26:15;;;;;;;3.88;1.63;;;27.80;56.20;;;;;;5021775;28;20057;-75
2022/06/13 13:29:09;;;;;;;1.85;1.48;;;27.70;55.50;;;;;;5018585;28;20088;-74
2022/06/13 13:32:11;;;;;;;2.65;1.83;;;27.60;56.00;;;;;;5006288;28;20057;-74
2022/06/13 13:35:17;;;;;;;4.35;1.60;;;27.50;58.60;;;;;;5020023;28;20052;-76
2022/06/13 13:38:08;;;;;;;2.00;1.40;;;27.40;59.30;;;;;;5004786;28;20049;-76
2022/06/13 13:40:48;;;;;;;1.98;1.70;;;27.30;59.20;;;;;;5020239;28;20520;-76
2022/06/13 13:43:30;;;;;;;5.90;1.88;;;27.20;60.40;;;;;;5022035;28;20084;-77
2022/06/13 13:46:35;;;;;;;2.47;2.25;;;27.30;62.20;;;;;;5024431;28;20057;-77
2022/06/13 13:49:17;;;;;;;4.95;2.60;;;27.50;62.60;;;;;;5022404;28;20060;-75
2022/06/13 13:51:52;;;;;;;3.38;2.70;;;27.80;63.40;;;;;;5013239;28;20069;-76
2022/06/13 13:54:43;;;;;;;5.03;3.67;;;27.90;63.10;;;;;;5017401;28;20084;-74
2022/06/13 13:57:47;;;;;;;3.70;2.90;;;27.70;63.80;;;;;;5001913;28;20045;-76
2022/06/13 14:00:17;;;;;;;4.35;3.20;;;27.70;64.50;;;;;;5015044;28;20076;-74
2022/06/13 14:03:13;;;;;;;6.80;4.03;;;27.80;64.80;;;;;;5013982;28;20057;-76
2022/06/13 14:06:26;;;;;;;5.25;3.25;;;27.70;65.30;;;;;;4998477;28;20050;-75